createdAt,value
2019-01-18T00:00:37.596Z,30.20
2019-01-18T00:03:25.019Z,27.70
2019-01-18T00:06:12.931Z,28.43
2019-01-18T00:08:41.763Z,28.57
2019-01-18T00:11:14.746Z,29.73
2019-01-18T00:13:51.467Z,28.23
2019-01-18T00:16:20.261Z,30.00
2019-01-18T00:18:49.125Z,28.43
2019-01-18T00:21:25.796Z,28.77
2019-01-18T00:23:58.258Z,29.93
2019-01-18T00:26:27.195Z,28.50
2019-01-18T00:28:56.130Z,29.53
2019-01-18T00:31:44.202Z,29.03
2019-01-18T00:34:20.261Z,30.23
2019-01-18T00:36:49.487Z,31.03
2019-01-18T00:39:52.322Z,30.70
2019-01-18T00:42:21.215Z,28.87
2019-01-18T00:44:50.257Z,30.37
2019-01-18T00:47:19.155Z,31.23
2019-01-18T00:49:50.531Z,32.03
2019-01-18T00:52:22.853Z,31.63
2019-01-18T00:55:27.926Z,32.00
2019-01-18T00:58:17.828Z,30.70
2019-01-18T01:00:50.519Z,31.13
2019-01-18T01:03:19.525Z,32.70
2019-01-18T01:05:48.863Z,31.50
2019-01-18T01:08:17.894Z,31.53
2019-01-18T01:10:54.530Z,31.50
2019-01-18T01:13:23.651Z,30.57
2019-01-18T01:16:05.292Z,32.03
2019-01-18T01:18:49.216Z,31.13
2019-01-18T01:21:37.421Z,31.30
2019-01-18T01:24:06.474Z,31.43
2019-01-18T01:26:35.634Z,32.87
2019-01-18T01:29:20.925Z,33.67
2019-01-18T01:39:51.231Z,33.63
2019-01-18T01:42:20.299Z,31.43
2019-01-18T01:47:54.931Z,33.07
2019-01-18T01:50:43.133Z,33.57
2019-01-18T01:56:01.301Z,33.57
2019-01-18T01:58:30.183Z,32.60
2019-01-18T02:00:59.105Z,33.13
2019-01-18T02:03:31.535Z,32.67
2019-01-18T02:06:02.456Z,32.70
2019-01-18T02:08:50.547Z,31.03
2019-01-18T02:11:19.722Z,31.87
2019-01-18T02:14:07.835Z,31.17
2019-01-18T02:16:36.782Z,31.00
2019-01-18T02:19:26.120Z,31.13
2019-01-18T02:21:54.982Z,31.50
2019-01-18T02:24:25.367Z,30.33
2019-01-18T02:26:54.195Z,31.03
2019-01-18T02:29:23.686Z,30.87
2019-01-18T02:31:52.718Z,31.23
2019-01-18T02:34:41.535Z,30.00
2019-01-18T02:37:24.559Z,30.23
2019-01-18T02:40:08.583Z,29.17
2019-01-18T02:42:38.235Z,28.67
2019-01-18T02:45:08.887Z,29.60
2019-01-18T02:47:53.219Z,27.83
2019-01-18T02:50:25.672Z,29.27
2019-01-18T02:52:56.603Z,28.93
2019-01-18T02:55:29.048Z,27.93
2019-01-18T02:57:56.276Z,26.83
2019-01-18T03:00:31.858Z,26.80
2019-01-18T03:03:01.185Z,27.70
2019-01-18T03:05:30.064Z,26.90
2019-01-18T03:10:54.602Z,26.17
2019-01-18T03:14:02.494Z,26.03
2019-01-18T03:16:31.723Z,27.10
2019-01-18T03:19:27.790Z,25.07
2019-01-18T03:22:37.514Z,25.30
2019-01-18T03:25:14.261Z,24.90
2019-01-18T03:31:08.890Z,24.33
2019-01-18T03:33:39.370Z,23.93
2019-01-18T03:36:10.242Z,22.03
2019-01-18T03:38:44.524Z,23.43
2019-01-18T03:41:28.878Z,22.53
2019-01-18T03:44:14.109Z,21.83
2019-01-18T03:46:43.240Z,22.40
2019-01-18T03:49:47.095Z,21.13
2019-01-18T03:52:16.621Z,21.00
2019-01-18T03:54:46.348Z,21.70
2019-01-18T03:57:24.141Z,21.43
2019-01-18T04:00:25.437Z,22.33
2019-01-18T04:02:58.074Z,21.93
2019-01-18T04:05:28.823Z,21.07
2019-01-18T04:08:03.027Z,21.27
2019-01-18T04:16:30.621Z,19.47
2019-01-18T04:18:59.740Z,19.37
2019-01-18T04:21:31.136Z,19.07
2019-01-18T04:24:01.714Z,18.83
2019-01-18T04:26:32.732Z,18.93
2019-01-18T04:29:21.839Z,19.27
2019-01-18T04:32:07.331Z,18.80
2019-01-18T04:34:37.046Z,17.80
2019-01-18T04:37:05.976Z,18.57
2019-01-18T04:39:40.961Z,17.53
2019-01-18T04:42:41.549Z,17.83
2019-01-18T04:45:12.171Z,17.00
2019-01-18T04:47:54.090Z,16.60
2019-01-18T04:50:25.606Z,15.80
2019-01-18T04:52:54.523Z,16.33
2019-01-18T04:58:11.347Z,16.20
2019-01-18T05:01:03.716Z,16.40
2019-01-18T05:03:32.626Z,15.60
2019-01-18T05:06:08.386Z,14.83
2019-01-18T05:09:08.911Z,13.90
2019-01-18T05:11:37.815Z,14.13
2019-01-18T05:17:09.768Z,13.27
2019-01-18T05:19:38.620Z,13.30
2019-01-18T05:22:27.945Z,13.57
2019-01-18T05:25:04.203Z,12.87
2019-01-18T05:27:34.039Z,12.90
2019-01-18T05:30:04.987Z,12.47
2019-01-18T05:32:35.631Z,12.43
2019-01-18T05:35:25.457Z,10.80
2019-01-18T05:37:54.306Z,11.57
2019-01-18T05:40:32.492Z,11.47
2019-01-18T05:43:04.188Z,11.37
2019-01-18T05:45:33.453Z,11.97
2019-01-18T05:48:02.669Z,11.20
2019-01-18T05:50:34.505Z,12.00
2019-01-18T05:53:06.212Z,12.03
2019-01-18T05:55:35.374Z,11.67
2019-01-18T05:58:12.767Z,12.67
2019-01-18T06:01:14.885Z,12.53
2019-01-18T06:03:44.952Z,12.33
2019-01-18T06:06:23.463Z,12.30
2019-01-18T06:08:52.400Z,12.70
2019-01-18T06:11:21.345Z,12.00
2019-01-18T06:13:50.262Z,12.57
2019-01-18T06:16:27.894Z,11.50
2019-01-18T06:18:56.867Z,11.73
2019-01-18T06:21:25.777Z,11.70
2019-01-18T06:24:52.693Z,11.47
2019-01-18T06:27:23.058Z,11.13
2019-01-18T06:30:14.145Z,10.97
2019-01-18T06:32:44.388Z,11.13
2019-01-18T06:35:13.691Z,10.67
2019-01-18T06:37:43.642Z,11.17
2019-01-18T06:40:15.373Z,10.30
2019-01-18T06:43:08.683Z,10.40
2019-01-18T06:45:39.365Z,10.63
2019-01-18T06:48:08.999Z,9.70
2019-01-18T06:50:37.821Z,9.80
2019-01-18T06:53:06.821Z,9.67
2019-01-18T06:55:35.702Z,9.27
2019-01-18T06:58:04.915Z,9.33
2019-01-18T07:00:35.161Z,10.60
2019-01-18T07:03:06.281Z,10.40
2019-01-18T07:05:37.340Z,10.90
2019-01-18T07:08:06.426Z,12.30
2019-01-18T07:10:51.066Z,10.27
2019-01-18T07:13:20.268Z,10.53
2019-01-18T07:15:50.832Z,11.23
2019-01-18T07:18:19.901Z,10.77
2019-01-18T07:20:49.911Z,10.87
2019-01-18T07:23:20.799Z,12.67
2019-01-18T07:25:51.348Z,10.70
2019-01-18T07:28:20.200Z,11.87
2019-01-18T07:30:50.796Z,12.43
2019-01-18T07:33:26.683Z,13.13
2019-01-18T07:35:56.509Z,13.80
2019-01-18T07:38:28.449Z,13.70
2019-01-18T07:40:57.464Z,16.93
2019-01-18T07:43:26.392Z,15.30
2019-01-18T07:46:01.391Z,16.20
2019-01-18T07:48:30.233Z,15.33
2019-01-18T07:51:02.249Z,15.13
2019-01-18T07:53:31.876Z,16.00
2019-01-18T07:56:05.135Z,15.63
2019-01-18T07:58:34.374Z,15.23
2019-01-18T08:01:03.200Z,15.67
2019-01-18T08:03:32.010Z,14.50
2019-01-18T08:07:55.086Z,14.03
2019-01-18T08:08:50.751Z,14.40
2019-01-18T08:11:20.044Z,13.70
2019-01-18T08:13:49.131Z,13.47
2019-01-18T08:16:40.595Z,13.70
2019-01-18T08:19:10.197Z,14.03
2019-01-18T08:21:42.641Z,12.73
2019-01-18T08:24:11.546Z,12.20
2019-01-18T08:26:42.329Z,13.00
2019-01-18T08:29:11.323Z,12.57
2019-01-18T08:31:40.251Z,12.63
2019-01-18T08:34:10.443Z,11.50
2019-01-18T08:39:10.842Z,11.50
2019-01-18T08:41:39.791Z,11.10
2019-01-18T08:44:08.639Z,11.07
2019-01-18T08:46:38.126Z,10.50
2019-01-18T08:49:07.385Z,11.20
2019-01-18T08:51:36.191Z,10.10
2019-01-18T08:54:20.475Z,9.57
2019-01-18T08:56:52.094Z,9.97
2019-01-18T08:59:20.895Z,9.67
2019-01-18T09:01:49.720Z,10.17
2019-01-18T09:04:18.502Z,8.77
2019-01-18T09:06:58.515Z,9.17
2019-01-18T09:09:28.447Z,8.80
2019-01-18T09:11:59.085Z,8.73
2019-01-18T09:14:27.887Z,8.87
2019-01-18T09:17:00.480Z,8.17
2019-01-18T09:19:31.060Z,8.40
2019-01-18T09:22:19.497Z,7.37
2019-01-18T09:24:49.951Z,7.47
2019-01-18T09:27:19.683Z,7.03
2019-01-18T09:29:48.621Z,7.60
2019-01-18T09:32:17.476Z,6.70
2019-01-18T09:34:46.277Z,6.50
2019-01-18T09:37:15.472Z,6.57
2019-01-18T09:39:46.834Z,6.03
2019-01-18T09:42:20.086Z,6.53
2019-01-18T09:44:51.433Z,6.43
2019-01-18T09:47:20.435Z,6.20
2019-01-18T09:49:52.494Z,5.67
2019-01-18T09:52:24.703Z,5.60
2019-01-18T09:55:01.010Z,5.83
2019-01-18T09:57:34.220Z,5.73
2019-01-18T10:00:03.103Z,5.87
2019-01-18T10:02:31.978Z,5.50
2019-01-18T10:05:00.887Z,5.53
2019-01-18T10:07:32.385Z,4.97
2019-01-18T10:10:07.100Z,4.70
2019-01-18T10:16:15.662Z,4.50
2019-01-18T10:18:45.876Z,5.10
2019-01-18T10:21:19.007Z,5.10
2019-01-18T10:23:47.872Z,5.20
2019-01-18T10:26:16.666Z,4.50
2019-01-18T10:28:47.328Z,4.47
2019-01-18T10:31:16.460Z,4.27
2019-01-18T10:33:51.504Z,4.40
2019-01-18T10:36:20.897Z,4.83
2019-01-18T10:41:27.056Z,4.03
2019-01-18T10:43:57.109Z,4.17
2019-01-18T10:46:26.217Z,4.20
2019-01-18T10:48:55.188Z,4.03
2019-01-18T10:51:24.110Z,3.50
2019-01-18T10:53:52.957Z,3.73
2019-01-18T16:17:59.244Z,17.23
2019-01-18T16:20:29.890Z,18.70
2019-01-18T16:23:01.503Z,18.17
2019-01-18T16:25:37.269Z,18.60
2019-01-18T16:28:15.750Z,17.83
2019-01-18T16:30:47.670Z,17.53
2019-01-18T16:33:23.347Z,16.70
2019-01-18T16:35:48.745Z,16.53
2019-01-18T16:38:17.910Z,16.30
2019-01-18T16:40:51.789Z,16.37
2019-01-18T16:43:26.896Z,16.47
2019-01-18T16:46:02.255Z,15.30
2019-01-18T16:48:31.355Z,15.40
2019-01-18T16:51:00.286Z,14.73
2019-01-18T16:53:29.115Z,15.63
2019-01-18T16:55:58.134Z,14.70
2019-01-18T16:58:29.207Z,14.30
2019-01-18T17:01:07.152Z,15.27
2019-01-18T17:03:40.681Z,14.37
2019-01-18T17:08:55.654Z,14.40
2019-01-18T17:11:40.430Z,14.03
2019-01-18T17:14:03.832Z,14.67
2019-01-18T17:16:36.722Z,15.07
2019-01-18T17:19:09.548Z,14.00
2019-01-18T17:21:39.520Z,13.97
2019-01-18T17:24:10.748Z,14.37
2019-01-18T17:26:40.842Z,15.00
2019-01-18T17:29:10.747Z,14.00
2019-01-18T17:34:51.716Z,15.07
2019-01-18T17:37:28.686Z,14.10
2019-01-18T17:40:25.403Z,16.37
2019-01-18T17:43:38.108Z,16.07
2019-01-18T17:46:52.789Z,16.87
2019-01-18T17:49:59.435Z,17.73
2019-01-18T17:53:25.395Z,17.50
2019-01-18T17:56:34.016Z,17.50
2019-01-18T17:59:58.187Z,18.70
2019-01-18T18:06:19.754Z,19.20
2019-01-18T18:09:15.315Z,19.80
2019-01-18T18:11:59.903Z,19.87
2019-01-18T18:14:55.085Z,22.53
2019-01-18T18:18:18.819Z,22.17
2019-01-18T18:21:35.751Z,23.97
2019-01-18T18:25:02.408Z,20.97
2019-01-18T18:28:12.004Z,22.60
2019-01-18T18:31:06.824Z,21.40
2019-01-18T18:34:27.005Z,24.77
2019-01-18T18:37:28.990Z,23.63
2019-01-18T18:40:42.952Z,24.53
2019-01-18T18:44:02.602Z,24.43
2019-01-18T18:47:30.715Z,25.13
2019-01-18T18:50:34.209Z,23.80
2019-01-18T18:53:56.650Z,24.80
2019-01-18T18:57:06.291Z,24.97
2019-01-18T19:00:12.660Z,24.60
2019-01-18T19:03:45.952Z,24.17
2019-01-18T19:07:01.854Z,24.53
2019-01-18T19:10:16.914Z,24.43
2019-01-18T19:13:22.215Z,24.97
2019-01-18T19:16:18.185Z,25.87
2019-01-18T19:19:19.306Z,24.27
2019-01-18T19:22:33.695Z,24.87
2019-01-18T19:26:02.007Z,25.13
2019-01-18T19:29:18.684Z,24.67
2019-01-18T19:32:28.352Z,25.83
2019-01-18T19:35:36.104Z,24.77
2019-01-18T19:38:51.518Z,23.93
2019-01-18T19:41:56.010Z,24.87
2019-01-18T19:44:57.839Z,24.93
2019-01-18T19:48:25.841Z,25.30
2019-01-18T19:50:56.483Z,25.00
2019-01-18T19:56:51.999Z,25.40
2019-01-18T20:00:18.439Z,26.60
2019-01-18T20:03:33.824Z,27.03
2019-01-18T20:07:01.045Z,27.50
2019-01-18T20:09:47.044Z,27.67
2019-01-18T20:12:55.292Z,28.30
2019-01-18T20:19:04.067Z,29.00
2019-01-18T20:22:11.532Z,29.30
2019-01-18T20:25:20.580Z,29.43
2019-01-18T20:28:42.038Z,28.17
2019-01-18T20:32:04.265Z,29.20
2019-01-18T20:35:02.844Z,28.10
2019-01-18T20:38:14.065Z,29.20
2019-01-18T20:41:18.496Z,28.50
2019-01-18T20:44:37.556Z,29.47
2019-01-18T20:47:51.356Z,29.70
2019-01-18T20:53:38.783Z,28.10
2019-01-18T20:57:08.948Z,29.10
2019-01-18T21:00:28.424Z,29.33
2019-01-18T21:03:50.885Z,30.27
2019-01-18T21:07:07.220Z,30.30
2019-01-18T21:10:14.903Z,31.13
2019-01-18T21:13:39.352Z,32.70
2019-01-18T21:16:27.035Z,31.53
2019-01-18T21:19:25.930Z,36.08
2019-01-18T21:22:39.098Z,34.37
2019-01-18T21:25:47.909Z,34.10
2019-01-18T21:29:02.573Z,33.37
2019-01-18T21:32:05.705Z,33.70
2019-01-18T21:39:05.902Z,34.73
2019-01-18T21:42:22.409Z,33.97
2019-01-18T21:45:42.375Z,37.00
2019-01-18T21:48:51.442Z,33.70
2019-01-18T21:52:11.634Z,34.27
2019-01-18T21:55:22.349Z,34.37
2019-01-18T21:58:20.966Z,33.80
2019-01-18T22:04:52.688Z,32.43
2019-01-18T22:08:30.766Z,33.77
2019-01-18T22:11:46.399Z,34.20
2019-01-18T22:15:06.685Z,33.43
2019-01-18T22:18:03.204Z,34.97
2019-01-18T22:21:09.613Z,35.67
2019-01-18T22:24:10.412Z,36.07
2019-01-18T22:27:30.810Z,37.27
2019-01-18T22:31:00.796Z,37.10
2019-01-18T22:33:55.855Z,37.23
2019-01-18T22:37:05.592Z,38.60
2019-01-18T22:43:56.641Z,37.27
2019-01-18T22:47:21.972Z,40.37
2019-01-18T22:50:37.629Z,39.37
2019-01-18T22:53:44.951Z,39.40
2019-01-18T22:56:57.447Z,40.23
2019-01-18T23:00:12.343Z,40.10
2019-01-18T23:02:54.766Z,41.63
2019-01-18T23:05:53.757Z,42.33
2019-01-18T23:09:20.052Z,41.90
2019-01-18T23:12:23.832Z,40.30
2019-01-18T23:15:24.512Z,43.20
2019-01-18T23:18:27.877Z,43.20
2019-01-18T23:21:53.897Z,42.60
2019-01-18T23:24:49.555Z,46.57
2019-01-18T23:27:47.162Z,46.13
2019-01-18T23:30:33.721Z,47.00
2019-01-18T23:33:45.423Z,46.57
2019-01-18T23:36:35.646Z,47.87
2019-01-18T23:40:03.969Z,46.47
2019-01-18T23:43:24.774Z,46.47
2019-01-18T23:46:31.666Z,46.57
2019-01-18T23:49:35.894Z,46.27
2019-01-18T23:52:47.835Z,46.00
2019-01-18T23:56:13.826Z,45.13
2019-01-18T23:59:23.625Z,45.63
